createdAt,value
2023-03-17T00:02:11.354Z,3.55
2023-03-17T00:07:16.976Z,3.53
2023-03-17T00:12:19.529Z,3.47
2023-03-17T00:17:21.134Z,3.48
2023-03-17T00:22:22.818Z,3.59
2023-03-17T00:27:24.449Z,3.63
2023-03-17T00:32:26.538Z,3.69
2023-03-17T00:37:29.376Z,3.71
2023-03-17T00:42:30.979Z,3.72
2023-03-17T00:47:35.765Z,3.71
2023-03-17T00:52:38.976Z,3.60
2023-03-17T00:57:41.949Z,3.70
2023-03-17T01:02:44.845Z,3.50
2023-03-17T01:07:52.893Z,3.33
2023-03-17T01:12:58.081Z,3.40
2023-03-17T01:18:02.775Z,3.33
2023-03-17T01:23:04.658Z,3.28
2023-03-17T01:28:07.086Z,3.31
2023-03-17T01:33:10.914Z,3.22
2023-03-17T01:38:13.243Z,2.98
2023-03-17T01:43:20.782Z,2.90
2023-03-17T01:48:23.967Z,2.91
2023-03-17T01:53:26.605Z,2.86
2023-03-17T01:58:28.379Z,2.84
2023-03-17T02:03:30.047Z,2.79
2023-03-17T02:08:31.694Z,2.71
2023-03-17T02:13:35.007Z,2.73
2023-03-17T02:18:36.567Z,2.46
2023-03-17T02:23:50.726Z,2.30
2023-03-17T02:28:52.527Z,2.16
2023-03-17T02:33:54.611Z,2.21
2023-03-17T02:38:57.691Z,2.20
2023-03-17T02:43:59.327Z,2.22
2023-03-17T02:49:02.108Z,2.12
2023-03-17T02:54:04.405Z,2.10
2023-03-17T02:59:06.251Z,2.10
2023-03-17T03:04:08.813Z,2.05
2023-03-17T03:09:11.912Z,2.12
2023-03-17T03:14:13.859Z,2.10
2023-03-17T03:19:16.478Z,2.12
2023-03-17T03:24:18.140Z,2.05
2023-03-17T03:29:21.172Z,2.02
2023-03-17T03:34:22.807Z,1.93
2023-03-17T03:39:24.517Z,1.93
2023-03-17T03:44:26.273Z,1.81
2023-03-17T03:49:27.909Z,1.82
2023-03-17T03:54:29.551Z,1.80
2023-03-17T03:59:31.223Z,1.83
2023-03-17T04:04:32.962Z,1.75
2023-03-17T04:09:35.145Z,1.75
2023-03-17T04:14:36.965Z,1.67
2023-03-17T04:19:39.403Z,1.47
2023-03-17T04:24:41.131Z,1.33
2023-03-17T04:29:43.974Z,1.43
2023-03-17T04:34:45.818Z,1.46
2023-03-17T04:39:47.665Z,1.44
2023-03-17T04:44:49.337Z,1.42
2023-03-17T04:49:50.960Z,1.45
2023-03-17T04:54:55.197Z,1.47
2023-03-17T04:59:57.701Z,1.46
2023-03-17T05:04:59.321Z,1.44
2023-03-17T05:10:02.161Z,1.42
2023-03-17T05:15:05.497Z,1.41
2023-03-17T05:20:08.618Z,1.28
2023-03-17T05:25:10.283Z,1.16
2023-03-17T05:30:12.556Z,1.11
2023-03-17T05:35:14.192Z,1.03
2023-03-17T05:40:15.894Z,0.98
2023-03-17T05:45:18.726Z,0.94
2023-03-17T05:50:20.373Z,1.09
2023-03-17T05:55:22.080Z,1.09
2023-03-17T06:00:24.867Z,0.92
2023-03-17T06:05:26.560Z,0.92
2023-03-17T06:10:29.472Z,1.02
2023-03-17T06:15:32.760Z,0.90
2023-03-17T06:20:34.970Z,1.17
2023-03-17T06:25:37.095Z,1.38
2023-03-17T06:30:40.732Z,1.48
2023-03-17T06:35:42.691Z,1.81
2023-03-17T06:40:44.386Z,2.10
2023-03-17T06:45:46.433Z,2.10
2023-03-17T06:50:48.072Z,2.31
2023-03-17T06:55:49.732Z,2.60
2023-03-17T07:00:54.157Z,2.91
2023-03-17T07:05:55.960Z,3.27
2023-03-17T07:10:57.869Z,3.55
2023-03-17T07:16:00.658Z,3.58
2023-03-17T07:21:03.827Z,3.56
2023-03-17T07:26:05.920Z,3.61
2023-03-17T07:31:14.332Z,3.72
2023-03-17T07:36:16.115Z,3.87
2023-03-17T07:41:18.063Z,4.18
2023-03-17T07:46:19.986Z,4.42
2023-03-17T07:51:25.347Z,4.67
2023-03-17T07:56:26.959Z,5.36
2023-03-17T08:01:28.826Z,6.02
2023-03-17T08:06:31.232Z,6.58
2023-03-17T08:11:33.290Z,6.94
2023-03-17T08:16:35.040Z,7.49
2023-03-17T08:21:36.901Z,7.98
2023-03-17T08:26:38.518Z,8.40
2023-03-17T08:31:41.120Z,8.46
2023-03-17T08:36:42.891Z,8.92
2023-03-17T08:41:44.516Z,9.53
2023-03-17T08:46:47.215Z,10.00
2023-03-17T08:51:49.556Z,10.50
2023-03-17T08:56:51.898Z,10.37
2023-03-17T09:01:54.972Z,10.23
2023-03-17T09:07:03.679Z,10.40
2023-03-17T09:12:09.526Z,10.34
2023-03-17T09:17:14.541Z,10.49
2023-03-17T09:22:19.280Z,10.70
2023-03-17T09:27:20.983Z,10.85
2023-03-17T09:32:22.823Z,11.02
2023-03-17T09:37:26.272Z,11.22
2023-03-17T09:42:40.687Z,11.35
2023-03-17T09:47:51.139Z,11.62
2023-03-17T09:52:56.903Z,11.80
2023-03-17T09:58:00.769Z,11.82
2023-03-17T10:03:02.432Z,12.31
2023-03-17T10:08:31.563Z,12.50
2023-03-17T10:13:56.763Z,12.67
2023-03-17T10:19:15.141Z,12.83
2023-03-17T10:24:17.251Z,13.02
2023-03-17T10:29:24.021Z,13.39
2023-03-17T10:34:37.747Z,13.62
2023-03-17T10:39:49.532Z,13.97
2023-03-17T10:44:54.083Z,14.47
2023-03-17T10:49:58.204Z,14.72
2023-03-17T10:55:06.336Z,14.64
2023-03-17T11:00:19.977Z,14.42
2023-03-17T11:05:26.566Z,14.68
2023-03-17T11:10:29.428Z,14.70
2023-03-17T11:15:54.566Z,14.86
2023-03-17T11:21:02.298Z,14.84
2023-03-17T11:26:32.091Z,15.00
2023-03-17T11:32:04.506Z,15.25
2023-03-17T11:37:24.692Z,15.56
2023-03-17T11:42:31.879Z,15.62
2023-03-17T11:47:54.951Z,15.53
2023-03-17T11:53:05.735Z,15.47
2023-03-17T11:58:17.610Z,15.69
2023-03-17T12:03:27.655Z,15.97
2023-03-17T12:09:00.272Z,15.77
2023-03-17T12:14:14.045Z,16.01
2023-03-17T12:19:24.575Z,15.97
2023-03-17T12:24:54.680Z,16.20
2023-03-17T12:30:08.331Z,16.33
2023-03-17T12:35:26.416Z,16.35
2023-03-17T12:41:10.772Z,16.35
2023-03-17T12:46:12.413Z,16.55
2023-03-17T12:51:37.903Z,16.35
2023-03-17T12:56:46.117Z,16.47
2023-03-17T13:02:15.693Z,16.43
2023-03-17T13:07:42.177Z,16.49
2023-03-17T13:12:44.410Z,16.18
2023-03-17T13:17:46.195Z,16.15
2023-03-17T13:23:13.789Z,16.28
2023-03-17T13:28:17.404Z,16.31
2023-03-17T13:33:27.325Z,16.11
2023-03-17T13:38:35.819Z,15.95
2023-03-17T13:43:56.901Z,15.63
2023-03-17T13:49:04.241Z,15.48
2023-03-17T13:54:40.622Z,15.38
2023-03-17T13:59:50.998Z,15.31
2023-03-17T14:04:58.208Z,14.79
2023-03-17T14:10:04.205Z,14.99
2023-03-17T14:15:14.875Z,14.97
2023-03-17T14:20:16.942Z,14.88
2023-03-17T14:25:21.768Z,14.65
2023-03-17T14:30:30.807Z,14.49
2023-03-17T14:35:35.671Z,14.47
2023-03-17T14:40:37.349Z,14.42
2023-03-17T14:46:05.307Z,14.40
2023-03-17T14:51:10.067Z,14.30
2023-03-17T14:56:13.388Z,14.32
2023-03-17T15:01:18.235Z,14.24
2023-03-17T15:06:36.254Z,14.16
2023-03-17T15:11:43.409Z,14.10
2023-03-17T15:16:55.407Z,14.06
2023-03-17T15:22:00.070Z,14.00
2023-03-17T15:27:04.750Z,13.86
2023-03-17T15:32:16.007Z,13.88
2023-03-17T15:37:27.980Z,13.92
2023-03-17T15:42:32.681Z,14.00
2023-03-17T15:47:37.119Z,13.91
2023-03-17T15:52:38.812Z,13.84
2023-03-17T15:57:40.893Z,13.77
2023-03-17T16:02:45.558Z,13.76
2023-03-17T16:07:47.812Z,13.63
2023-03-17T16:12:50.590Z,13.60
2023-03-17T16:17:59.318Z,13.56
2023-03-17T16:23:20.053Z,13.53
2023-03-17T16:28:23.205Z,13.40
2023-03-17T16:33:33.219Z,13.31
2023-03-17T16:38:34.851Z,13.21
2023-03-17T16:43:38.291Z,13.18
2023-03-17T16:48:39.939Z,13.10
2023-03-17T16:53:41.623Z,13.06
2023-03-17T16:58:43.292Z,12.98
2023-03-17T17:03:45.482Z,12.96
2023-03-17T17:08:48.584Z,12.92
2023-03-17T17:13:52.370Z,12.92
2023-03-17T17:18:54.736Z,12.93
2023-03-17T17:23:56.659Z,12.85
2023-03-17T17:28:58.290Z,12.78
2023-03-17T17:33:59.983Z,12.62
2023-03-17T17:39:01.708Z,12.54
2023-03-17T17:44:03.712Z,12.45
2023-03-17T17:49:05.630Z,12.34
2023-03-17T17:54:08.454Z,12.33
2023-03-17T17:59:11.386Z,12.30
2023-03-17T18:04:15.151Z,12.25
2023-03-17T18:09:18.390Z,12.21
2023-03-17T18:14:20.052Z,12.17
2023-03-17T18:19:24.258Z,12.10
2023-03-17T18:24:26.427Z,11.95
2023-03-17T18:29:28.031Z,11.90
2023-03-17T18:34:35.202Z,11.82
2023-03-17T18:39:36.995Z,11.78
2023-03-17T18:44:40.026Z,11.79
2023-03-17T18:49:41.708Z,11.64
2023-03-17T18:54:43.354Z,11.60
2023-03-17T18:59:45.037Z,11.53
2023-03-17T19:04:47.812Z,11.50
2023-03-17T19:09:49.463Z,11.43
2023-03-17T19:14:51.131Z,11.36
2023-03-17T19:19:52.743Z,11.36
2023-03-17T19:24:54.461Z,11.33
2023-03-17T19:29:56.097Z,11.20
2023-03-17T19:34:57.771Z,11.08
2023-03-17T19:39:59.884Z,11.01
2023-03-17T19:45:01.624Z,11.02
2023-03-17T19:50:03.922Z,11.01
2023-03-17T19:55:08.256Z,11.10
2023-03-17T20:00:11.106Z,11.10
2023-03-17T20:05:13.224Z,10.99
2023-03-17T20:10:14.869Z,10.92
2023-03-17T20:15:17.071Z,11.01
2023-03-17T20:20:19.088Z,11.06
2023-03-17T20:25:20.689Z,11.07
2023-03-17T20:30:22.703Z,11.04
2023-03-17T20:35:25.243Z,10.95
2023-03-17T20:40:28.578Z,10.85
2023-03-17T20:45:30.821Z,10.75
2023-03-17T20:50:34.468Z,10.70
2023-03-17T20:55:36.516Z,10.56
2023-03-17T21:00:38.937Z,10.41
2023-03-17T21:05:40.661Z,10.30
2023-03-17T21:10:42.475Z,10.31
2023-03-17T21:15:44.292Z,10.28
2023-03-17T21:20:46.399Z,10.27
2023-03-17T21:25:48.521Z,10.11
2023-03-17T21:30:50.311Z,10.03
2023-03-17T21:35:52.267Z,9.92
2023-03-17T21:40:57.833Z,9.97
2023-03-17T21:45:59.566Z,9.98
2023-03-17T21:51:01.243Z,9.95
2023-03-17T21:56:04.068Z,9.96
2023-03-17T22:01:06.286Z,9.87
2023-03-17T22:06:09.942Z,9.73
2023-03-17T22:11:14.488Z,9.77
2023-03-17T22:16:17.090Z,9.86
2023-03-17T22:21:19.406Z,9.88
2023-03-17T22:26:22.292Z,9.84
2023-03-17T22:31:27.392Z,9.64
2023-03-17T22:36:30.097Z,9.56
2023-03-17T22:41:31.889Z,9.58
2023-03-17T22:46:33.878Z,9.59
2023-03-17T22:51:36.627Z,9.64
2023-03-17T22:56:38.261Z,9.67
2023-03-17T23:01:40.357Z,9.69
2023-03-17T23:06:42.386Z,9.61
2023-03-17T23:11:44.242Z,9.64
2023-03-17T23:16:47.082Z,9.64
2023-03-17T23:21:48.723Z,9.56
2023-03-17T23:26:50.369Z,9.49
2023-03-17T23:31:52.110Z,9.42
2023-03-17T23:36:53.834Z,9.42
2023-03-17T23:41:55.476Z,9.46
2023-03-17T23:46:57.206Z,9.45
2023-03-17T23:51:58.845Z,9.48
2023-03-17T23:57:01.838Z,9.49
